createdAt,value
2019-03-17T00:02:25.277Z,11.80
2019-03-17T00:04:53.859Z,11.95
2019-03-17T00:07:22.428Z,11.83
2019-03-17T00:09:50.994Z,11.65
2019-03-17T00:12:19.635Z,11.56
2019-03-17T00:14:48.184Z,11.53
2019-03-17T00:17:16.764Z,11.49
2019-03-17T00:19:46.254Z,11.51
2019-03-17T00:22:14.950Z,11.54
2019-03-17T00:24:43.658Z,11.54
2019-03-17T00:27:12.270Z,11.48
2019-03-17T00:29:40.810Z,11.46
2019-03-17T00:32:09.453Z,11.43
2019-03-17T00:34:44.052Z,11.50
2019-03-17T00:37:08.264Z,11.65
2019-03-17T00:39:37.203Z,11.88
2019-03-17T00:42:05.907Z,11.81
2019-03-17T00:44:34.495Z,11.60
2019-03-17T00:47:03.088Z,11.47
2019-03-17T00:49:31.768Z,11.35
2019-03-17T00:52:00.219Z,11.35
2019-03-17T00:54:28.833Z,11.44
2019-03-17T00:56:57.428Z,11.48
2019-03-17T00:59:26.037Z,11.42
2019-03-17T01:01:54.547Z,11.43
2019-03-17T01:04:23.172Z,11.42
2019-03-17T01:06:51.740Z,11.46
2019-03-17T01:09:20.588Z,11.42
2019-03-17T01:11:49.161Z,11.57
2019-03-17T01:14:17.737Z,11.83
2019-03-17T01:16:46.383Z,11.73
2019-03-17T01:19:14.994Z,11.43
2019-03-17T01:21:43.582Z,11.20
2019-03-17T01:24:12.127Z,11.01
2019-03-17T01:26:40.741Z,10.96
2019-03-17T01:29:09.324Z,10.92
2019-03-17T01:31:37.893Z,10.89
2019-03-17T01:34:06.335Z,10.96
2019-03-17T01:36:34.949Z,10.98
2019-03-17T01:39:04.019Z,10.91
2019-03-17T01:41:32.585Z,10.97
2019-03-17T01:44:01.121Z,10.94
2019-03-17T01:46:29.699Z,11.03
2019-03-17T01:48:58.879Z,11.29
2019-03-17T01:51:27.684Z,11.43
2019-03-17T01:53:56.262Z,11.28
2019-03-17T01:56:24.791Z,11.15
2019-03-17T01:58:53.269Z,10.99
2019-03-17T02:01:21.919Z,11.02
2019-03-17T02:03:50.569Z,11.01
2019-03-17T02:06:18.972Z,10.94
2019-03-17T02:08:47.593Z,10.86
2019-03-17T02:11:16.749Z,10.86
2019-03-17T02:13:45.396Z,11.02
2019-03-17T02:16:13.984Z,11.08
2019-03-17T02:18:42.538Z,11.10
2019-03-17T02:21:11.198Z,11.13
2019-03-17T02:23:39.775Z,11.25
2019-03-17T02:26:08.322Z,11.44
2019-03-17T02:28:37.621Z,11.35
2019-03-17T02:31:06.223Z,11.26
2019-03-17T02:33:34.754Z,11.07
2019-03-17T02:36:03.362Z,10.94
2019-03-17T02:38:31.933Z,10.93
2019-03-17T02:41:00.476Z,10.93
2019-03-17T02:43:29.003Z,10.97
2019-03-17T02:45:57.554Z,11.00
2019-03-17T02:48:26.282Z,11.11
2019-03-17T02:50:54.875Z,11.17
2019-03-17T02:53:23.399Z,11.19
2019-03-17T02:55:52.061Z,11.19
2019-03-17T02:58:20.653Z,11.29
2019-03-17T03:00:49.193Z,11.48
2019-03-17T03:03:17.702Z,11.43
2019-03-17T03:05:55.032Z,11.28
2019-03-17T03:08:17.759Z,11.07
2019-03-17T03:10:46.434Z,11.07
2019-03-17T03:13:14.995Z,11.04
2019-03-17T03:15:43.569Z,11.02
2019-03-17T03:18:12.142Z,10.96
2019-03-17T03:20:40.717Z,10.97
2019-03-17T03:23:09.389Z,11.03
2019-03-17T03:25:37.953Z,11.11
2019-03-17T03:28:06.589Z,10.96
2019-03-17T03:30:35.185Z,10.94
2019-03-17T03:33:03.797Z,10.96
2019-03-17T03:35:32.417Z,11.19
2019-03-17T03:38:01.072Z,11.14
2019-03-17T03:40:29.845Z,10.93
2019-03-17T03:42:59.027Z,10.67
2019-03-17T03:45:27.652Z,10.67
2019-03-17T03:47:57.206Z,10.58
2019-03-17T03:50:25.750Z,10.51
2019-03-17T03:52:54.348Z,10.47
2019-03-17T03:55:23.094Z,10.36
2019-03-17T03:57:52.724Z,10.31
2019-03-17T04:00:21.427Z,10.28
2019-03-17T04:02:50.029Z,10.24
2019-03-17T04:05:18.614Z,10.23
2019-03-17T04:07:47.322Z,10.23
2019-03-17T04:10:15.913Z,10.41
2019-03-17T04:12:44.540Z,10.57
2019-03-17T04:15:13.221Z,10.53
2019-03-17T04:17:42.034Z,10.48
2019-03-17T04:20:12.227Z,10.33
2019-03-17T04:22:40.873Z,10.07
2019-03-17T04:25:09.587Z,10.04
2019-03-17T04:27:38.207Z,10.01
2019-03-17T04:30:09.623Z,9.92
2019-03-17T04:32:38.054Z,9.95
2019-03-17T04:35:07.664Z,9.94
2019-03-17T04:37:36.324Z,9.92
2019-03-17T04:40:06.620Z,9.97
2019-03-17T04:42:35.255Z,10.03
2019-03-17T04:45:04.065Z,10.11
2019-03-17T04:47:32.609Z,10.37
2019-03-17T04:50:01.081Z,10.27
2019-03-17T04:52:29.814Z,10.01
2019-03-17T04:54:58.367Z,9.84
2019-03-17T04:57:26.947Z,9.64
2019-03-17T04:59:55.459Z,9.59
2019-03-17T05:02:24.044Z,9.59
2019-03-17T05:04:52.549Z,9.54
2019-03-17T05:07:21.192Z,9.49
2019-03-17T05:09:49.818Z,9.54
2019-03-17T05:12:18.407Z,9.63
2019-03-17T05:14:46.943Z,9.58
2019-03-17T05:17:15.523Z,9.60
2019-03-17T05:19:44.079Z,9.70
2019-03-17T05:22:12.642Z,9.73
2019-03-17T05:24:41.196Z,9.89
2019-03-17T05:27:09.739Z,9.80
2019-03-17T05:29:38.188Z,9.61
2019-03-17T05:32:07.708Z,9.45
2019-03-17T05:34:36.256Z,9.42
2019-03-17T05:37:06.671Z,9.33
2019-03-17T05:39:35.202Z,9.28
2019-03-17T05:42:03.806Z,9.28
2019-03-17T05:44:32.430Z,9.29
2019-03-17T05:47:01.053Z,9.29
2019-03-17T05:49:29.547Z,9.26
2019-03-17T05:51:58.006Z,9.26
2019-03-17T05:54:26.649Z,9.33
2019-03-17T05:56:55.231Z,9.46
2019-03-17T05:59:23.860Z,9.69
2019-03-17T06:01:52.450Z,9.56
2019-03-17T06:04:21.390Z,9.36
2019-03-17T06:06:49.947Z,9.23
2019-03-17T06:09:18.417Z,9.12
2019-03-17T06:11:46.926Z,9.06
2019-03-17T06:14:15.700Z,9.03
2019-03-17T06:16:44.436Z,9.01
2019-03-17T06:19:13.030Z,9.01
2019-03-17T06:21:41.722Z,9.01
2019-03-17T06:24:10.336Z,8.95
2019-03-17T06:26:38.821Z,8.99
2019-03-17T06:29:07.400Z,9.09
2019-03-17T06:31:35.968Z,9.18
2019-03-17T06:34:04.746Z,9.40
2019-03-17T06:36:33.264Z,9.48
2019-03-17T06:39:01.897Z,9.36
2019-03-17T06:41:30.430Z,9.32
2019-03-17T06:43:58.962Z,9.17
2019-03-17T06:46:27.416Z,9.18
2019-03-17T06:48:55.937Z,9.12
2019-03-17T06:51:24.528Z,9.07
2019-03-17T06:53:56.716Z,9.09
2019-03-17T06:56:23.455Z,9.05
2019-03-17T06:58:52.152Z,9.01
2019-03-17T07:01:20.735Z,9.03
2019-03-17T07:03:49.235Z,8.95
2019-03-17T07:06:17.923Z,9.02
2019-03-17T07:08:46.514Z,9.08
2019-03-17T07:11:15.117Z,9.35
2019-03-17T07:13:43.725Z,9.27
2019-03-17T07:16:12.193Z,9.06
2019-03-17T07:18:40.788Z,8.91
2019-03-17T07:21:09.253Z,8.48
2019-03-17T07:23:37.858Z,8.18
2019-03-17T07:26:06.795Z,7.94
2019-03-17T07:28:35.339Z,7.83
2019-03-17T07:31:03.930Z,7.83
2019-03-17T07:33:32.540Z,7.80
2019-03-17T07:36:01.135Z,7.78
2019-03-17T07:38:29.687Z,7.77
2019-03-17T07:40:58.625Z,7.92
2019-03-17T07:43:27.238Z,8.05
2019-03-17T07:45:55.914Z,8.28
2019-03-17T07:48:24.557Z,8.39
2019-03-17T07:50:53.222Z,8.13
2019-03-17T07:53:21.763Z,7.81
2019-03-17T07:55:50.499Z,7.57
2019-03-17T07:58:19.671Z,7.47
2019-03-17T08:00:48.481Z,7.31
2019-03-17T08:03:16.992Z,7.61
2019-03-17T08:05:45.619Z,7.83
2019-03-17T08:08:14.204Z,7.98
2019-03-17T08:10:42.861Z,8.25
2019-03-17T08:13:11.563Z,8.34
2019-03-17T08:15:40.052Z,8.47
2019-03-17T08:18:08.682Z,8.58
2019-03-17T08:20:37.702Z,8.74
2019-03-17T08:23:06.381Z,8.94
2019-03-17T08:25:34.840Z,8.82
2019-03-17T08:28:03.349Z,8.65
2019-03-17T08:30:32.066Z,8.50
2019-03-17T08:33:00.607Z,8.57
2019-03-17T08:35:29.147Z,8.68
2019-03-17T08:37:57.742Z,8.69
2019-03-17T08:40:26.368Z,8.79
2019-03-17T08:42:55.442Z,8.79
2019-03-17T08:45:23.981Z,8.97
2019-03-17T08:47:57.724Z,9.13
2019-03-17T08:50:22.718Z,9.45
2019-03-17T08:52:51.164Z,9.61
2019-03-17T08:55:19.701Z,9.75
2019-03-17T08:57:48.134Z,9.96
2019-03-17T09:00:18.810Z,9.92
2019-03-17T09:02:47.355Z,9.69
2019-03-17T09:05:16.040Z,9.64
2019-03-17T09:07:44.623Z,9.67
2019-03-17T09:10:14.551Z,9.63
2019-03-17T09:12:43.138Z,9.61
2019-03-17T09:15:11.831Z,9.68
2019-03-17T09:17:40.437Z,9.68
2019-03-17T09:20:11.356Z,9.59
2019-03-17T09:22:40.010Z,9.58
2019-03-17T09:25:10.394Z,9.65
2019-03-17T09:27:39.420Z,9.81
2019-03-17T09:30:13.507Z,10.03
2019-03-17T09:32:42.178Z,10.22
2019-03-17T09:35:11.376Z,10.27
2019-03-17T09:37:40.027Z,10.20
2019-03-17T09:40:13.220Z,10.00
2019-03-17T09:42:41.808Z,9.93
2019-03-17T09:45:12.037Z,9.73
2019-03-17T09:47:41.280Z,9.63
2019-03-17T09:50:18.230Z,9.62
2019-03-17T09:52:46.934Z,9.70
2019-03-17T09:55:15.454Z,9.88
2019-03-17T09:57:44.143Z,9.85
2019-03-17T10:00:17.763Z,9.80
2019-03-17T10:02:46.346Z,9.69
2019-03-17T10:05:15.000Z,9.48
2019-03-17T10:07:43.733Z,9.38
2019-03-17T10:10:14.825Z,9.30
2019-03-17T10:12:44.151Z,8.83
2019-03-17T10:15:14.531Z,8.55
2019-03-17T10:17:43.246Z,8.26
2019-03-17T10:20:16.130Z,8.17
2019-03-17T10:22:44.733Z,8.14
2019-03-17T10:25:13.606Z,8.28
2019-03-17T10:27:42.181Z,8.33
2019-03-17T10:30:15.904Z,8.40
2019-03-17T10:32:44.551Z,8.50
2019-03-17T10:35:13.179Z,8.50
2019-03-17T10:37:41.834Z,8.61
2019-03-17T10:40:21.506Z,9.08
2019-03-17T10:42:50.468Z,9.60
2019-03-17T10:45:19.149Z,10.03
2019-03-17T10:47:47.662Z,10.03
2019-03-17T10:50:19.878Z,10.19
2019-03-17T10:52:48.519Z,10.00
2019-03-17T10:55:17.130Z,9.67
2019-03-17T10:57:45.773Z,9.56
2019-03-17T11:00:18.690Z,9.52
2019-03-17T11:02:48.065Z,9.24
2019-03-17T11:05:17.071Z,9.25
2019-03-17T11:07:45.717Z,9.67
2019-03-17T11:10:17.261Z,9.93
2019-03-17T11:12:45.891Z,10.15
2019-03-17T11:15:19.547Z,10.46
2019-03-17T11:17:48.153Z,10.93
2019-03-17T11:20:16.848Z,11.26
2019-03-17T11:22:45.663Z,10.95
2019-03-17T11:25:18.098Z,10.57
2019-03-17T11:27:46.736Z,10.24
2019-03-17T11:30:17.200Z,10.04
2019-03-17T11:32:45.934Z,9.83
2019-03-17T11:35:14.891Z,9.61
2019-03-17T11:37:44.174Z,9.64
2019-03-17T11:40:14.866Z,9.77
2019-03-17T11:42:43.726Z,10.16
2019-03-17T11:45:15.757Z,10.65
2019-03-17T11:47:44.619Z,11.03
2019-03-17T11:50:21.193Z,11.38
2019-03-17T11:52:49.882Z,11.72
2019-03-17T11:55:19.099Z,12.00
2019-03-17T11:57:47.695Z,11.93
2019-03-17T12:00:18.518Z,11.76
2019-03-17T12:02:47.030Z,11.75
2019-03-17T12:05:15.773Z,11.59
2019-03-17T12:07:44.360Z,11.51
2019-03-17T12:10:21.262Z,11.49
2019-03-17T12:12:49.875Z,11.74
2019-03-17T12:15:35.746Z,11.80
2019-03-17T12:18:04.444Z,11.82
2019-03-17T12:20:33.102Z,11.88
2019-03-17T12:23:01.814Z,12.04
2019-03-17T12:25:30.466Z,12.15
2019-03-17T12:27:59.365Z,12.47
2019-03-17T12:30:28.452Z,12.71
2019-03-17T12:32:57.558Z,12.47
2019-03-17T12:35:26.256Z,12.30
2019-03-17T12:37:54.870Z,11.88
2019-03-17T12:40:23.527Z,11.53
2019-03-17T12:42:52.163Z,11.29
2019-03-17T12:45:20.849Z,11.01
2019-03-17T12:47:49.609Z,10.92
2019-03-17T12:50:23.686Z,10.60
2019-03-17T12:52:52.241Z,10.69
2019-03-17T12:55:20.865Z,10.80
2019-03-17T12:57:49.511Z,10.88
2019-03-17T13:00:20.046Z,11.18
2019-03-17T13:02:48.661Z,11.51
2019-03-17T13:05:17.294Z,11.92
2019-03-17T13:07:45.946Z,12.12
2019-03-17T13:10:21.551Z,11.84
2019-03-17T13:12:50.176Z,11.43
2019-03-17T13:15:18.966Z,11.06
2019-03-17T13:17:47.597Z,10.68
2019-03-17T13:20:21.375Z,10.51
2019-03-17T13:22:50.071Z,10.25
2019-03-17T13:25:19.613Z,9.94
2019-03-17T13:27:48.276Z,9.83
2019-03-17T13:30:17.466Z,9.59
2019-03-17T13:32:46.017Z,9.52
2019-03-17T13:35:14.634Z,9.37
2019-03-17T13:37:43.553Z,9.37
2019-03-17T13:40:28.135Z,9.68
2019-03-17T13:42:47.257Z,9.88
2019-03-17T13:45:16.576Z,9.91
2019-03-17T13:47:45.288Z,10.07
2019-03-17T13:50:22.103Z,10.25
2019-03-17T13:52:50.948Z,10.15
2019-03-17T13:55:19.493Z,10.22
2019-03-17T13:57:59.683Z,10.34
2019-03-17T14:00:28.291Z,10.20
2019-03-17T14:02:57.188Z,9.92
2019-03-17T14:05:25.827Z,9.77
2019-03-17T14:07:54.357Z,9.62
2019-03-17T14:10:23.121Z,9.45
2019-03-17T14:12:51.826Z,9.40
2019-03-17T14:15:20.483Z,9.68
2019-03-17T14:17:49.569Z,10.10
2019-03-17T14:20:24.309Z,9.94
2019-03-17T14:22:52.933Z,9.49
2019-03-17T14:25:35.608Z,9.39
2019-03-17T14:28:04.457Z,9.48
2019-03-17T14:30:33.118Z,9.42
2019-03-17T14:33:01.799Z,9.33
2019-03-17T14:35:30.361Z,9.62
2019-03-17T14:37:58.959Z,9.79
2019-03-17T14:40:27.592Z,9.73
2019-03-17T14:42:56.165Z,9.72
2019-03-17T14:45:24.739Z,9.81
2019-03-17T14:47:53.385Z,9.86
2019-03-17T14:50:23.716Z,10.05
2019-03-17T14:52:52.339Z,10.26
2019-03-17T14:55:20.931Z,9.93
2019-03-17T14:57:49.547Z,9.72
2019-03-17T15:00:20.349Z,9.73
2019-03-17T15:02:49.247Z,9.76
2019-03-17T15:05:17.846Z,9.73
2019-03-17T15:07:46.537Z,9.76
2019-03-17T15:10:17.491Z,9.70
2019-03-17T15:12:46.086Z,9.57
2019-03-17T15:15:18.880Z,9.58
2019-03-17T15:17:47.523Z,9.70
2019-03-17T15:20:21.256Z,9.46
2019-03-17T15:22:49.924Z,9.36
2019-03-17T15:25:18.510Z,9.65
2019-03-17T15:27:47.250Z,10.17
2019-03-17T15:30:29.155Z,10.30
2019-03-17T15:32:57.769Z,10.29
2019-03-17T15:35:26.363Z,10.25
2019-03-17T15:37:54.959Z,9.96
2019-03-17T15:40:23.525Z,9.70
2019-03-17T15:42:52.149Z,9.56
2019-03-17T15:45:27.171Z,9.55
2019-03-17T15:47:55.701Z,9.54
2019-03-17T15:50:25.604Z,9.83
2019-03-17T15:52:54.231Z,10.07
2019-03-17T15:55:22.794Z,10.01
2019-03-17T15:57:51.556Z,9.76
2019-03-17T16:00:27.229Z,9.86
2019-03-17T16:02:55.948Z,10.03
2019-03-17T16:05:24.642Z,9.84
2019-03-17T16:07:53.249Z,9.40
2019-03-17T16:10:32.863Z,9.26
2019-03-17T16:13:01.540Z,9.02
2019-03-17T16:15:30.138Z,8.81
2019-03-17T16:17:58.755Z,8.63
2019-03-17T16:20:28.052Z,8.45
2019-03-17T16:22:56.631Z,8.58
2019-03-17T16:25:40.573Z,8.58
2019-03-17T16:28:09.801Z,8.54
2019-03-17T16:30:38.358Z,8.58
2019-03-17T16:33:06.975Z,8.55
2019-03-17T16:35:35.629Z,8.86
2019-03-17T16:38:04.404Z,9.13
2019-03-17T16:40:34.568Z,9.05
2019-03-17T16:43:03.209Z,8.73
2019-03-17T16:45:31.737Z,8.53
2019-03-17T16:48:00.408Z,8.27
2019-03-17T16:50:29.016Z,8.14
2019-03-17T16:52:57.482Z,7.93
2019-03-17T16:55:26.141Z,7.93
2019-03-17T16:57:55.198Z,7.87
2019-03-17T17:00:25.563Z,8.10
2019-03-17T17:02:54.340Z,8.31
2019-03-17T17:05:24.169Z,8.37
2019-03-17T17:07:52.794Z,8.45
2019-03-17T17:10:24.962Z,8.60
2019-03-17T17:12:53.566Z,8.87
2019-03-17T17:15:28.073Z,8.97
2019-03-17T17:17:56.843Z,8.76
2019-03-17T17:20:28.075Z,8.42
2019-03-17T17:22:56.657Z,8.28
2019-03-17T17:25:25.292Z,8.11
2019-03-17T17:27:53.950Z,8.11
2019-03-17T17:30:22.709Z,8.17
2019-03-17T17:32:51.300Z,8.16
2019-03-17T17:35:20.017Z,8.22
2019-03-17T17:37:48.576Z,8.15
2019-03-17T17:40:27.962Z,8.16
2019-03-17T17:42:56.737Z,8.08
2019-03-17T17:45:26.830Z,8.15
2019-03-17T17:47:55.555Z,8.27
2019-03-17T17:50:26.189Z,8.39
2019-03-17T17:52:54.699Z,8.21
2019-03-17T17:55:23.301Z,7.91
2019-03-17T17:57:53.098Z,7.73
2019-03-17T18:00:26.725Z,7.58
2019-03-17T18:02:55.290Z,7.53
2019-03-17T18:05:23.896Z,7.50
2019-03-17T18:07:52.484Z,7.43
2019-03-17T18:10:21.069Z,7.57
2019-03-17T18:12:49.718Z,7.51
2019-03-17T18:15:25.839Z,7.56
2019-03-17T18:17:54.488Z,7.62
2019-03-17T18:20:23.274Z,7.72
2019-03-17T18:22:52.279Z,7.84
2019-03-17T18:25:21.704Z,8.04
2019-03-17T18:27:50.388Z,7.82
2019-03-17T18:30:20.930Z,7.60
2019-03-17T18:32:49.528Z,7.52
2019-03-17T18:35:18.162Z,7.45
2019-03-17T18:37:46.736Z,7.35
2019-03-17T18:40:16.335Z,7.27
2019-03-17T18:42:44.959Z,7.26
2019-03-17T18:45:21.488Z,7.19
2019-03-17T18:47:50.091Z,7.20
2019-03-17T18:50:20.562Z,7.01
2019-03-17T18:52:49.161Z,7.01
2019-03-17T18:55:17.806Z,7.10
2019-03-17T18:57:46.666Z,7.12
2019-03-17T19:00:20.050Z,7.15
2019-03-17T19:02:48.703Z,7.02
2019-03-17T19:05:19.897Z,6.76
2019-03-17T19:07:48.122Z,6.51
2019-03-17T19:10:17.639Z,6.24
2019-03-17T19:12:46.528Z,6.09
2019-03-17T19:15:23.955Z,6.01
2019-03-17T19:17:52.479Z,5.96
2019-03-17T19:20:24.700Z,5.97
2019-03-17T19:22:53.278Z,5.99
2019-03-17T19:25:24.060Z,6.06
2019-03-17T19:27:52.666Z,6.15
2019-03-17T19:30:21.966Z,6.24
2019-03-17T19:32:50.525Z,6.24
2019-03-17T19:35:19.181Z,6.56
2019-03-17T19:37:47.737Z,6.67
2019-03-17T19:40:20.467Z,6.40
2019-03-17T19:42:58.717Z,6.22
2019-03-17T19:45:19.731Z,5.90
2019-03-17T19:47:48.423Z,5.64
2019-03-17T19:50:22.028Z,5.59
2019-03-17T19:52:50.644Z,5.53
2019-03-17T19:55:19.251Z,5.51
2019-03-17T19:57:47.994Z,5.58
2019-03-17T20:00:17.468Z,5.70
2019-03-17T20:02:47.732Z,5.76
2019-03-17T20:05:16.611Z,5.66
2019-03-17T20:07:45.260Z,5.67
2019-03-17T20:10:19.513Z,5.83
2019-03-17T20:12:48.040Z,6.04
2019-03-17T20:15:16.681Z,5.84
2019-03-17T20:17:45.227Z,5.60
2019-03-17T20:20:14.777Z,5.54
2019-03-17T20:22:43.412Z,5.36
2019-03-17T20:25:11.987Z,5.19
2019-03-17T20:27:40.487Z,5.23
2019-03-17T20:30:13.256Z,5.18
2019-03-17T20:32:41.846Z,5.11
2019-03-17T20:35:11.896Z,5.00
2019-03-17T20:37:40.561Z,4.96
2019-03-17T20:40:14.337Z,4.94
2019-03-17T20:42:43.365Z,4.97
2019-03-17T20:45:13.086Z,5.12
2019-03-17T20:47:41.760Z,5.39
2019-03-17T20:50:14.125Z,5.24
2019-03-17T20:52:42.750Z,5.10
2019-03-17T20:55:12.100Z,4.92
2019-03-17T20:57:40.677Z,4.78
2019-03-17T21:00:17.355Z,4.62
2019-03-17T21:02:46.049Z,4.66
2019-03-17T21:05:14.860Z,4.79
2019-03-17T21:07:43.626Z,4.80
2019-03-17T21:10:15.921Z,4.82
2019-03-17T21:12:44.660Z,4.86
2019-03-17T21:15:20.815Z,4.79
2019-03-17T21:17:49.390Z,4.80
2019-03-17T21:20:25.629Z,4.94
2019-03-17T21:22:54.888Z,5.12
2019-03-17T21:25:23.552Z,5.13
2019-03-17T21:27:52.138Z,5.03
2019-03-17T21:30:31.656Z,4.92
2019-03-17T21:33:01.328Z,4.79
2019-03-17T21:35:30.286Z,4.68
2019-03-17T21:37:59.201Z,4.70
2019-03-17T21:40:27.735Z,4.74
2019-03-17T21:42:56.709Z,4.79
2019-03-17T21:45:27.452Z,4.84
2019-03-17T21:47:55.578Z,4.81
2019-03-17T21:50:24.173Z,4.84
2019-03-17T21:52:52.900Z,4.92
2019-03-17T21:55:21.441Z,4.99
2019-03-17T21:57:50.060Z,5.13
2019-03-17T22:00:19.307Z,5.20
2019-03-17T22:02:48.019Z,4.99
2019-03-17T22:05:16.635Z,4.85
2019-03-17T22:07:50.293Z,4.78
2019-03-17T22:10:19.338Z,4.63
2019-03-17T22:12:47.862Z,4.56
2019-03-17T22:15:17.185Z,4.54
2019-03-17T22:17:45.758Z,4.54
2019-03-17T22:20:15.287Z,4.59
2019-03-17T22:22:43.870Z,4.68
2019-03-17T22:25:16.115Z,4.73
2019-03-17T22:27:44.701Z,4.79
2019-03-17T22:30:18.060Z,4.77
2019-03-17T22:32:46.621Z,4.78
2019-03-17T22:35:15.202Z,4.84
2019-03-17T22:37:43.877Z,4.77
2019-03-17T22:40:14.372Z,4.63
2019-03-17T22:42:42.948Z,4.55
2019-03-17T22:45:12.842Z,4.45
2019-03-17T22:47:41.454Z,4.39
2019-03-17T22:50:18.557Z,4.38
2019-03-17T22:52:47.268Z,4.43
2019-03-17T22:55:15.737Z,4.44
2019-03-17T22:57:44.307Z,4.41
2019-03-17T23:00:36.008Z,4.41
2019-03-17T23:03:05.378Z,4.52
2019-03-17T23:05:33.902Z,4.71
2019-03-17T23:08:02.513Z,4.76
2019-03-17T23:10:31.128Z,4.92
2019-03-17T23:12:59.650Z,4.81
2019-03-17T23:15:28.451Z,4.68
2019-03-17T23:17:57.032Z,4.55
2019-03-17T23:20:25.702Z,4.38
2019-03-17T23:22:54.256Z,4.32
2019-03-17T23:25:22.839Z,4.34
2019-03-17T23:27:51.543Z,4.49
2019-03-17T23:30:22.090Z,4.62
2019-03-17T23:32:50.637Z,4.63
2019-03-17T23:35:19.271Z,4.62
2019-03-17T23:37:48.182Z,4.55
2019-03-17T23:40:17.552Z,4.58
2019-03-17T23:42:46.118Z,4.62
2019-03-17T23:45:15.118Z,4.83
2019-03-17T23:47:43.733Z,4.91
2019-03-17T23:50:13.862Z,4.70
2019-03-17T23:52:43.362Z,4.49
2019-03-17T23:55:13.191Z,4.40
2019-03-17T23:57:41.828Z,4.31
